Flight Track Log - Related Links

Times and Time Zones

All times are in EDT time to prevent confusion due to time zone crossing. See the UAL1061 flight status page for this flight to view local times or setup timezone preferences in your user account.

Time Position Orientation Groundspeed Altitude Reporting Facility
EDT Latitude Longitude Course Direction KTS MPH feet Rate Location/Type
Mon 05:51:27 AM 39.1790 -76.7790 279° West 240 276 2,900  Level FlightAware ADS-B
Mon 05:51:47 AM 39.1840 -76.8060 283° West 233 268 4,300 3,867 Climbing FlightAware ADS-B
Mon 05:52:12 AM 39.1920 -76.8400 287° West 236 272 5,800 3,600 Climbing FlightAware ADS-B
Mon 05:52:22 AM 39.1940 -76.8560 279° West 237 273 6,400 3,150 Climbing FlightAware ADS-B
Mon 05:52:52 AM 39.2040 -76.8970 287° West 249 287 7,900 3,415 Climbing FlightAware ADS-B
Mon 05:53:27 AM 39.1760 -76.9580 239° Southwest 265 305 10,100 3,040 Climbing FlightAware ADS-B
Mon 05:54:07 AM 39.1350 -77.0060 222° Southwest 307 353 11,700 2,325 Climbing FlightAware ADS-B
Mon 05:54:47 AM 39.0940 -77.0550 223° Southwest 341 392 13,200 2,329 Climbing FlightAware ADS-B
Mon 05:55:32 AM 39.0370 -77.1210 222° Southwest 365 420 15,000 2,883 Climbing FlightAware ADS-B
Mon 05:56:04 AM 38.9933 -77.1714 222° Southwest 369 425 16,900 3,143 Climbing FlightAware ADS-B
Mon 05:56:35 AM 38.9532 -77.2177 222° Southwest 376 433 18,300 2,531 Climbing FlightAware ADS-B
Mon 05:57:08 AM 38.9112 -77.2664 222° Southwest 383 441 19,600 2,531 Climbing FlightAware ADS-B
Mon 05:57:39 AM 38.8692 -77.3148 222° Southwest 387 445 21,000 2,361 Climbing FlightAware ADS-B
Mon 05:58:09 AM 38.8288 -77.3612 222° Southwest 393 452 22,000 1,967 Climbing FlightAware ADS-B
Mon 05:58:40 AM 38.7868 -77.4093 222° Southwest 395 455 23,000 2,029 Climbing FlightAware ADS-B
Mon 05:59:17 AM 38.7364 -77.4670 222° Southwest 395 455 24,300 1,886 Climbing FlightAware ADS-B
Mon 05:59:50 AM 38.6920 -77.5179 222° Southwest 396 456 25,200 1,477 Climbing FlightAware ADS-B
Mon 06:00:22 AM 38.6481 -77.5680 222° Southwest 399 459 25,900 1,452 Climbing FlightAware ADS-B
Mon 06:00:52 AM 38.6064 -77.6154 222° Southwest 397 457 26,700 1,700 Climbing FlightAware ADS-B
Mon 06:01:22 AM 38.5652 -77.6623 222° Southwest 393 452 27,600 1,729 Climbing FlightAware ADS-B
Mon 06:01:51 AM 38.5262 -77.7068 222° Southwest 388 447 28,400 1,789 Climbing FlightAware ADS-B
Mon 06:02:19 AM 38.4942 -77.7530 229° Southwest 379 436 29,300 1,655 Climbing FlightAware ADS-B
Mon 06:02:49 AM 38.4649 -77.8086 236° Southwest 376 433 30,000 1,535 Climbing FlightAware ADS-B
Mon 06:03:45 AM 38.4115 -77.9104 236° Southwest 369 425 31,500 1,379 Climbing FlightAware ADS-B
Mon 06:04:16 AM 38.3822 -77.9668 236° Southwest 367 422 32,000 326 Climbing FlightAware ADS-B
Mon 06:05:17 AM 38.3260 -78.0740 236° Southwest 365 420 32,000  Level FlightAware ADS-B
Mon 06:06:02 AM 38.2840 -78.1510 235° Southwest 363 418 32,000  Level FlightAware ADS-B
Mon 06:06:42 AM 38.2470 -78.2220 236° Southwest 363 418 32,000  Level FlightAware ADS-B
Mon 06:07:27 AM 38.2040 -78.3040 236° Southwest 364 419 32,000  Level FlightAware ADS-B
Mon 06:08:07 AM 38.1660 -78.3740 235° Southwest 365 420 32,000  Level FlightAware ADS-B
Mon 06:08:47 AM 38.1290 -78.4450 236° Southwest 364 419 32,000  Level FlightAware ADS-B
Mon 06:09:32 AM 38.0980 -78.5320 246° West 363 418 32,000  Level FlightAware ADS-B
Mon 06:10:12 AM 38.0710 -78.6100 246° West 365 420 32,000  Level FlightAware ADS-B
Mon 06:10:57 AM 38.0400 -78.7000 246° West 365 420 32,000  Level FlightAware ADS-B
Mon 06:11:37 AM 38.0130 -78.7790 247° West 365 420 32,000  Level FlightAware ADS-B
Mon 06:12:32 AM 37.9770 -78.8840 247° West 364 419 32,000  Level FlightAware ADS-B
Mon 06:13:12 AM 37.9510 -78.9610 247° West 364 419 32,000  Level FlightAware ADS-B
Mon 06:13:57 AM 37.9200 -79.0510 246° West 363 418 32,000  Level FlightAware ADS-B
Mon 06:14:37 AM 37.8910 -79.1270 244° Southwest 366 421 32,000  Level FlightAware ADS-B
Mon 06:15:22 AM 37.8510 -79.2080 238° Southwest 366 421 32,000  Level FlightAware ADS-B
Mon 06:16:02 AM 37.8150 -79.2800 238° Southwest 365 420 32,000  Level FlightAware ADS-B
Mon 06:16:42 AM 37.7800 -79.3510 238° Southwest 364 419 32,000  Level FlightAware ADS-B
Mon 06:17:27 AM 37.7410 -79.4260 237° Southwest 364 419 32,000  Level FlightAware ADS-B
Mon 06:18:07 AM 37.7100 -79.4860 237° Southwest 364 419 32,000  Level FlightAware ADS-B
Mon 06:18:47 AM 37.6790 -79.5470 237° Southwest 364 419 32,000  Level FlightAware ADS-B
Mon 06:19:27 AM 37.6480 -79.6080 237° Southwest 364 419 32,000  Level FlightAware ADS-B
Mon 06:20:07 AM 37.6170 -79.6680 237° Southwest 364 419 32,000  Level FlightAware ADS-B
Mon 06:20:57 AM 37.5780 -79.7440 237° Southwest 364 419 32,000  Level FlightAware ADS-B
Mon 06:21:37 AM 37.5470 -79.8050 237° Southwest 364 419 32,000  Level FlightAware ADS-B
Mon 06:22:17 AM 37.5150 -79.8650 236° Southwest 364 419 32,000  Level FlightAware ADS-B
Mon 06:22:57 AM 37.4840 -79.9260 237° Southwest 364 419 32,000  Level FlightAware ADS-B
Mon 06:23:37 AM 37.4530 -79.9860 237° Southwest 364 419 32,000  Level FlightAware ADS-B
Mon 06:24:27 AM 37.4140 -80.0620 237° Southwest 364 419 32,000  Level FlightAware ADS-B
Mon 06:24:57 AM 37.3910 -80.1070 237° Southwest 364 419 32,000  Level FlightAware ADS-B
Mon 06:25:37 AM 37.3590 -80.1680 237° Southwest 364 419 32,000  Level FlightAware ADS-B
Mon 06:26:17 AM 37.3280 -80.2280 237° Southwest 364 419 32,000  Level FlightAware ADS-B
Mon 06:27:19 AM 37.2000 -80.4953 237° Southwest 381 438 32,000  Level Atlanta Center
Mon 06:33:23 AM 36.9152 -81.1988 237° Southwest 372 428 32,000  Level FlightAware ADS-B
Mon 06:33:47 AM 36.8976 -81.2463 245° Southwest 370 426 32,000  Level FlightAware ADS-B
Mon 06:34:41 AM 36.8549 -81.3460 242° Southwest 369 425 32,000  Level FlightAware ADS-B
Mon 06:35:17 AM 36.8261 -81.4138 242° Southwest 367 422 32,000  Level FlightAware ADS-B
Mon 06:36:05 AM 36.7880 -81.5037 242° Southwest 371 427 32,000  Level FlightAware ADS-B
Mon 06:36:35 AM 36.7632 -81.5617 242° Southwest 371 427 32,000  Level FlightAware ADS-B
Mon 06:37:06 AM 36.7386 -81.6187 242° Southwest 371 427 32,000  Level FlightAware ADS-B
Mon 06:37:36 AM 36.7139 -81.6759 242° Southwest 372 428 32,000  Level FlightAware ADS-B
Mon 06:38:07 AM 36.6890 -81.7341 242° Southwest 372 428 32,000  Level FlightAware ADS-B
Mon 06:38:38 AM 36.6637 -81.7930 242° Southwest 372 428 32,000  Level FlightAware ADS-B
Mon 06:39:14 AM 36.6351 -81.8597 242° Southwest 372 428 32,000  Level FlightAware ADS-B
Mon 06:39:44 AM 36.6100 -81.9177 242° Southwest 374 430 32,000  Level FlightAware ADS-B
Mon 06:40:15 AM 36.5846 -81.9764 242° Southwest 376 433 32,000  Level FlightAware ADS-B
Mon 06:40:45 AM 36.5595 -82.0340 242° Southwest 377 434 32,000  Level FlightAware ADS-B
Mon 06:41:16 AM 36.5343 -82.0920 242° Southwest 378 435 32,000  Level FlightAware ADS-B
Mon 06:41:47 AM 36.5087 -82.1507 242° Southwest 379 436 32,000  Level FlightAware ADS-B
Mon 06:42:17 AM 36.4835 -82.2084 242° Southwest 381 438 32,000  Level FlightAware ADS-B
Mon 06:42:47 AM 36.4580 -82.2665 241° Southwest 381 438 32,000  Level FlightAware ADS-B
Mon 06:43:17 AM 36.4326 -82.3246 241° Southwest 382 440 32,000  Level FlightAware ADS-B
Mon 06:43:48 AM 36.4071 -82.3829 241° Southwest 383 441 32,000  Level FlightAware ADS-B
Mon 06:44:19 AM 36.3806 -82.4435 242° Southwest 383 441 32,000  Level FlightAware ADS-B
Mon 06:44:49 AM 36.3549 -82.5018 241° Southwest 385 443 32,000  Level FlightAware ADS-B
Mon 06:45:20 AM 36.3289 -82.5608 241° Southwest 386 444 32,000  Level FlightAware ADS-B
Mon 06:45:52 AM 36.3013 -82.6238 241° Southwest 388 447 32,000  Level FlightAware ADS-B
Mon 06:46:23 AM 36.2747 -82.6836 241° Southwest 388 447 32,000  Level FlightAware ADS-B
Mon 06:46:53 AM 36.2487 -82.7422 241° Southwest 389 448 32,000  Level FlightAware ADS-B
Mon 06:47:23 AM 36.2225 -82.8009 241° Southwest 389 448 32,000  Level FlightAware ADS-B
Mon 06:47:54 AM 36.1957 -82.8609 241° Southwest 390 449 32,000  Level FlightAware ADS-B
Mon 06:48:24 AM 36.1696 -82.9194 241° Southwest 390 449 32,000  Level FlightAware ADS-B
Mon 06:48:54 AM 36.1433 -82.9788 241° Southwest 391 450 32,000  Level FlightAware ADS-B
Mon 06:49:24 AM 36.1170 -83.0375 241° Southwest 392 451 32,000  Level FlightAware ADS-B
Mon 06:50:09 AM 36.0774 -83.1258 241° Southwest 392 451 32,000  Level FlightAware ADS-B
Mon 06:50:53 AM 36.0392 -83.2111 241° Southwest 393 452 32,000  Level FlightAware ADS-B
Mon 06:51:24 AM 36.0120 -83.2715 241° Southwest 393 452 32,000  Level FlightAware ADS-B
Mon 06:51:54 AM 35.9851 -83.3315 241° Southwest 395 455 32,000  Level FlightAware ADS-B
Mon 06:52:28 AM 35.9553 -83.3979 241° Southwest 395 455 32,000  Level FlightAware ADS-B
Mon 06:52:59 AM 35.9272 -83.4596 241° Southwest 397 457 32,000  Level FlightAware ADS-B
Mon 06:53:32 AM 35.8979 -83.5235 241° Southwest 397 457 32,000  Level FlightAware ADS-B
Mon 06:54:02 AM 35.8706 -83.5833 241° Southwest 398 458 32,000  Level FlightAware ADS-B
Mon 06:54:33 AM 35.8427 -83.6449 241° Southwest 399 459 32,000  Level FlightAware ADS-B
Mon 06:55:04 AM 35.8153 -83.7050 241° Southwest 400 460 32,000  Level FlightAware ADS-B
Mon 06:55:34 AM 35.7878 -83.7654 241° Southwest 401 461 32,000  Level FlightAware ADS-B
Mon 06:56:04 AM 35.7605 -83.8250 241° Southwest 403 464 32,000  Level FlightAware ADS-B
Mon 06:56:39 AM 35.7285 -83.8947 241° Southwest 404 465 32,000  Level FlightAware ADS-B
Mon 06:57:09 AM 35.7005 -83.9551 240° Southwest 404 465 32,000  Level FlightAware ADS-B
Mon 06:57:41 AM 35.6716 -84.0178 240° Southwest 405 466 32,000  Level FlightAware ADS-B
Mon 06:58:11 AM 35.6438 -84.0791 241° Southwest 406 467 32,000  Level FlightAware ADS-B
Mon 06:58:42 AM 35.6153 -84.1407 240° Southwest 406 467 32,000  Level FlightAware ADS-B
Mon 06:59:13 AM 35.5864 -84.2028 240° Southwest 406 467 32,000  Level FlightAware ADS-B
Mon 06:59:43 AM 35.5581 -84.2634 240° Southwest 406 467 32,000  Level FlightAware ADS-B
Mon 07:00:14 AM 35.5294 -84.3249 240° Southwest 407 468 32,000  Level FlightAware ADS-B
Mon 07:00:45 AM 35.5010 -84.3861 240° Southwest 408 470 32,000  Level FlightAware ADS-B
Mon 07:01:47 AM 35.4430 -84.5100 240° Southwest 411 473 32,000  Level FlightAware ADS-B
Mon 07:01:59 AM 35.4312 -84.5361 241° Southwest 413 475 32,000  Level FlightAware ADS-B
Mon 07:02:30 AM 35.4019 -84.5986 240° Southwest 415 478 32,000  Level FlightAware ADS-B
Mon 07:03:00 AM 35.3728 -84.6607 240° Southwest 418 481 32,000  Level FlightAware ADS-B
Mon 07:03:31 AM 35.3432 -84.7235 240° Southwest 420 483 32,000  Level FlightAware ADS-B
Mon 07:04:01 AM 35.3136 -84.7860 240° Southwest 420 483 32,000  Level FlightAware ADS-B
Mon 07:04:33 AM 35.2823 -84.8523 240° Southwest 422 486 32,000  Level FlightAware ADS-B
Mon 07:05:04 AM 35.2527 -84.9150 240° Southwest 422 486 32,000  Level FlightAware ADS-B
Mon 07:05:57 AM 35.2030 -85.0190 240° Southwest 423 487 32,000  Level FlightAware ADS-B
Mon 07:06:11 AM 35.1869 -85.0541 241° Southwest 422 486 32,000  Level FlightAware ADS-B
Mon 07:06:42 AM 35.1580 -85.1160 240° Southwest 424 488 32,000  Level FlightAware ADS-B
Mon 07:06:53 AM 35.1452 -85.1418 239° Southwest 424 488 32,000  Level FlightAware ADS-B
Mon 07:07:24 AM 35.1152 -85.2049 240° Southwest 426 490 32,000  Level FlightAware ADS-B
Mon 07:07:54 AM 35.0854 -85.2674 240° Southwest 427 491 32,000  Level FlightAware ADS-B
Mon 07:08:25 AM 35.0548 -85.3314 240° Southwest 427 491 32,000  Level FlightAware ADS-B
Mon 07:09:04 AM 35.0153 -85.4137 240° Southwest 428 493 32,000  Level FlightAware ADS-B
Mon 07:09:41 AM 34.9790 -85.4891 240° Southwest 428 493 32,000  Level FlightAware ADS-B
Mon 07:10:15 AM 34.9442 -85.5613 240° Southwest 428 493 32,000  Level FlightAware ADS-B
Mon 07:10:46 AM 34.9135 -85.6248 239° Southwest 428 493 32,000  Level FlightAware ADS-B
Mon 07:11:37 AM 34.8660 -85.7240 240° Southwest 426 490 32,000  Level FlightAware ADS-B
Mon 07:12:17 AM 34.8250 -85.8070 239° Southwest 426 490 32,000  Level FlightAware ADS-B
Mon 07:13:12 AM 34.7740 -85.9120 239° Southwest 427 491 32,000  Level FlightAware ADS-B
Mon 07:13:52 AM 34.7390 -85.9820 239° Southwest 427 491 32,000  Level FlightAware ADS-B
Mon 07:14:32 AM 34.7050 -86.0520 239° Southwest 427 491 32,000  Level FlightAware ADS-B
Mon 07:15:12 AM 34.6700 -86.1220 239° Southwest 427 491 32,000  Level FlightAware ADS-B
Mon 07:15:52 AM 34.6350 -86.1920 239° Southwest 427 491 32,000  Level FlightAware ADS-B
Mon 07:16:42 AM 34.5920 -86.2800 239° Southwest 427 491 32,000  Level FlightAware ADS-B
Mon 07:17:17 AM 34.5210 -86.4280 240° Southwest 434 499 32,000  Level FlightAware ADS-B
Mon 07:18:02 AM 34.4800 -86.5120 239° Southwest 434 499 32,000  Level FlightAware ADS-B
Mon 07:18:52 AM 34.4360 -86.6010 239° Southwest 434 499 32,000  Level FlightAware ADS-B
Mon 07:19:32 AM 34.4010 -86.6720 239° Southwest 434 499 32,000  Level FlightAware ADS-B
Mon 07:20:12 AM 34.3650 -86.7430 238° Southwest 434 499 32,000  Level FlightAware ADS-B
Mon 07:20:52 AM 34.3300 -86.8140 239° Southwest 434 499 32,000  Level FlightAware ADS-B
Mon 07:21:32 AM 34.2950 -86.8850 239° Southwest 434 499 32,000  Level FlightAware ADS-B
Mon 07:22:22 AM 34.2510 -86.9730 239° Southwest 434 499 32,000  Level FlightAware ADS-B
Mon 07:23:02 AM 34.2160 -87.0440 239° Southwest 434 499 32,000  Level FlightAware ADS-B
Mon 07:23:42 AM 34.1810 -87.1150 239° Southwest 434 499 32,000  Level FlightAware ADS-B
Mon 07:24:22 AM 34.1460 -87.1850 239° Southwest 434 499 32,000  Level FlightAware ADS-B
Mon 07:25:02 AM 34.1100 -87.2560 239° Southwest 434 499 32,000  Level FlightAware ADS-B
Mon 07:25:42 AM 34.0750 -87.3270 239° Southwest 434 499 32,000  Level FlightAware ADS-B
Mon 07:26:32 AM 34.0310 -87.4150 239° Southwest 434 499 32,000  Level FlightAware ADS-B
Mon 07:27:12 AM 33.9960 -87.4860 239° Southwest 434 499 32,000  Level FlightAware ADS-B
Mon 07:27:44 AM 33.8714 -87.7253 239° Southwest 446 513 32,000  Level Memphis Center
Mon 07:28:44 AM 33.7950 -87.8625 236° Southwest 441 507 32,000  Level Memphis Center
Mon 07:29:44 AM 33.7367 -87.9817 240° Southwest 454 522 32,000  Level Memphis Center
Mon 07:30:44 AM 33.6703 -88.1083 238° Southwest 454 522 32,000  Level Memphis Center
Mon 07:31:44 AM 33.6036 -88.2372 238° Southwest 460 529 32,000  Level Memphis Center
Mon 07:32:44 AM 33.5369 -88.3658 238° Southwest 460 529 32,000  Level Memphis Center
Mon 07:33:44 AM 33.4742 -88.4919 239° Southwest 460 529 32,000  Level Memphis Center
Mon 07:34:44 AM 33.4092 -88.6178 238° Southwest 455 524 32,000  Level Memphis Center
Mon 07:35:44 AM 33.3419 -88.7433 237° Southwest 455 524 32,000  Level Memphis Center
Mon 07:36:44 AM 33.2767 -88.8689 238° Southwest 455 524 32,000  Level Memphis Center
Mon 07:37:44 AM 33.2114 -88.9892 237° Southwest 455 524 32,000  Level Memphis Center
Mon 07:38:44 AM 33.1458 -89.1117 237° Southwest 450 518 32,000 -150 Level Memphis Center
Mon 07:39:44 AM 33.0822 -89.2292 237° Southwest 439 505 31,700 -600 Descending Memphis Center
Mon 07:40:44 AM 33.0164 -89.3564 238° Southwest 439 505 30,800 -950 Descending Memphis Center
Mon 07:41:44 AM 32.9444 -89.4858 237° Southwest 452 520 29,800 -1,000 Descending Memphis Center
Mon 07:42:44 AM 32.8722 -89.6178 237° Southwest 473 544 28,800 -900 Descending Memphis Center
Mon 07:43:44 AM 32.7958 -89.7567 237° Southwest 491 565 28,000 -400 Descending Memphis Center
Mon 07:44:44 AM 32.7233 -89.8931 238° Southwest 496 571 28,000 -400 Level Memphis Center
Mon 07:45:44 AM 32.6506 -90.0292 238° Southwest 496 571 27,200 -900 Descending Memphis Center
Mon 07:46:44 AM 32.5736 -90.1700 237° Southwest 506 582 26,200 -600 Descending Memphis Center
Mon 07:47:44 AM 32.4986 -90.3081 237° Southwest 506 582 26,000 -100 Descending Memphis Center
Mon 07:48:44 AM 32.4192 -90.4483 236° Southwest 506 582 26,000  Level Memphis Center
Mon 07:49:44 AM 32.3419 -90.5908 237° Southwest 511 588 26,000  Level Memphis Center
Mon 07:51:16 AM 32.2294 -90.7939 237° Southwest 513 590 26,000  Level Houston Center
Mon 07:52:18 AM 32.1350 -90.9619 236° Southwest 513 590 26,000 -537 Level Houston Center
Mon 07:53:19 AM 32.0575 -91.1014 237° Southwest 511 588 24,900 -984 Descending Houston Center
Mon 07:54:20 AM 31.9783 -91.2400 236° Southwest 510 587 24,000 -443 Descending Houston Center
Mon 07:55:21 AM 31.9028 -91.3753 237° Southwest 499 574 24,000  Level Houston Center
Mon 07:56:22 AM 31.8247 -91.5103 236° Southwest 497 572 24,000  Level Houston Center
Mon 07:57:24 AM 31.7478 -91.6467 236° Southwest 500 575 24,000  Level Houston Center
Mon 07:58:25 AM 31.6697 -91.7831 236° Southwest 502 578 24,000 -296 Level Houston Center
Mon 08:04:09 AM 31.2401 -92.5302 236° Southwest 442 509 22,000 -313 Descending FlightAware ADS-B
Mon 08:04:49 AM 31.1978 -92.6066 237° Southwest 416 479 22,000  Level FlightAware ADS-B
Mon 08:05:20 AM 31.1662 -92.6639 237° Southwest 414 476 22,000  Level FlightAware ADS-B
Mon 08:06:03 AM 31.1222 -92.7427 237° Southwest 409 471 22,000  Level FlightAware ADS-B
Mon 08:06:46 AM 31.0785 -92.8205 237° Southwest 395 455 22,000  Level FlightAware ADS-B
Mon 08:07:17 AM 31.0477 -92.8754 237° Southwest 394 453 22,000  Level FlightAware ADS-B
Mon 08:07:51 AM 31.0143 -92.9348 237° Southwest 392 451 22,000  Level FlightAware ADS-B
Mon 08:08:27 AM 30.9792 -92.9970 237° Southwest 373 429 22,000  Level FlightAware ADS-B
Mon 08:08:57 AM 30.9521 -93.0451 237° Southwest 351 404 22,000  Level FlightAware ADS-B
Mon 08:09:27 AM 30.9254 -93.0928 237° Southwest 353 406 22,000  Level FlightAware ADS-B
Mon 08:09:58 AM 30.8980 -93.1413 237° Southwest 351 404 22,000  Level FlightAware ADS-B
Mon 08:10:52 AM 30.8488 -93.2283 237° Southwest 353 406 22,000  Level FlightAware ADS-B
Mon 08:11:23 AM 30.8201 -93.2789 237° Southwest 381 438 22,000  Level FlightAware ADS-B
Mon 08:11:54 AM 30.7901 -93.3318 237° Southwest 380 437 22,000  Level FlightAware ADS-B
Mon 08:12:24 AM 30.7610 -93.3831 237° Southwest 381 438 22,000  Level FlightAware ADS-B
Mon 08:12:54 AM 30.7320 -93.4342 237° Southwest 381 438 22,000  Level FlightAware ADS-B
Mon 08:13:25 AM 30.7020 -93.4867 236° Southwest 382 440 22,000  Level FlightAware ADS-B
Mon 08:13:56 AM 30.6719 -93.5392 236° Southwest 381 438 22,000 -753 Level FlightAware ADS-B
Mon 08:18:04 AM 30.4352 -93.9520 236° Southwest 357 411 18,500 -860 Descending FlightAware ADS-B
Mon 08:18:35 AM 30.4076 -94.0002 236° Southwest 357 411 18,000 -1,017 Descending FlightAware ADS-B
Mon 08:18:47 AM 30.3960 -94.0200 236° Southwest 17,700 -1,071 Descending FlightAware ADS-B
Mon 08:19:03 AM 30.3821 -94.0447 237° Southwest 356 410 17,500 -923 Descending FlightAware ADS-B
Mon 08:19:13 AM 30.3724 -94.0613 236° Southwest 356 410 17,300 -973 Descending FlightAware ADS-B
Mon 08:19:40 AM 30.3490 -94.1030 237° Southwest 357 411 16,900 -968 Descending FlightAware ADS-B
Mon 08:19:44 AM 30.3446 -94.1094 231° Southwest 357 411 16,800 -1,500 Descending FlightAware ADS-B
Mon 08:19:56 AM 30.3332 -94.1294 237° Southwest 356 410 16,500 -1,125 Descending FlightAware ADS-B
Mon 08:20:16 AM 30.3170 -94.1610 239° Southwest 400 460 16,200 -1,000 Descending FlightAware ADS-B
Mon 08:20:26 AM 30.3079 -94.1787 239° Southwest 356 410 16,000 -1,000 Descending FlightAware ADS-B
Mon 08:20:52 AM 30.2870 -94.2190 239° Southwest 457 526 15,600 -968 Descending FlightAware ADS-B
Mon 08:20:57 AM 30.2828 -94.2281 242° Southwest 353 406 15,500 -1,000 Descending FlightAware ADS-B
Mon 08:21:16 AM 30.2671 -94.2590 240° Southwest 347 399 15,200 -1,000 Descending FlightAware ADS-B
Mon 08:21:27 AM 30.2580 -94.2760 238° Southwest 334 384 15,000 -1,000 Descending FlightAware ADS-B
Mon 08:21:46 AM 30.2426 -94.3066 240° Southwest 345 397 14,700 -1,059 Descending FlightAware ADS-B
Mon 08:22:01 AM 30.2300 -94.3300 238° Southwest 358 412 14,400 -923 Descending FlightAware ADS-B
Mon 08:22:12 AM 30.2211 -94.3481 240° Southwest 346 398 14,300 -1,463 Descending FlightAware ADS-B
Mon 08:22:42 AM 30.1965 -94.3956 239° Southwest 344 396 13,400 -1,800 Descending FlightAware ADS-B
Mon 08:23:12 AM 30.1722 -94.4424 239° Southwest 339 390 12,500 -1,959 Descending FlightAware ADS-B
Mon 08:23:31 AM 30.1566 -94.4728 239° Southwest 338 389 11,800 -2,154 Descending FlightAware ADS-B
Mon 08:23:51 AM 30.1400 -94.5040 238° Southwest 341 392 11,100 -2,077 Descending FlightAware ADS-B
Mon 08:23:57 AM 30.1360 -94.5129 243° Southwest 340 391 10,900 -968 Descending FlightAware ADS-B
Mon 08:24:22 AM 30.1180 -94.5480 239° Southwest 391 450 10,600 -800 Descending FlightAware ADS-B
Mon 08:24:27 AM 30.1125 -94.5585 239° Southwest 318 366 10,500 -1,000 Descending FlightAware ADS-B
Mon 08:24:46 AM 30.0988 -94.5850 239° Southwest 305 351 10,200 -1,154 Descending FlightAware ADS-B
Mon 08:24:53 AM 30.0940 -94.5950 241° Southwest 288 331 10,000 -1,714 Descending FlightAware ADS-B
Mon 08:25:00 AM 30.0887 -94.6049 238° Southwest 303 349 9,800 -2,333 Descending FlightAware ADS-B
Mon 08:25:11 AM 30.0810 -94.6200 239° Southwest 433 498 9,300 -2,571 Descending FlightAware ADS-B
Mon 08:25:14 AM 30.0785 -94.6244 237° Southwest 304 350 9,200 -2,000 Descending FlightAware ADS-B
Mon 08:25:29 AM 30.0676 -94.6452 239° Southwest 303 349 8,700 -1,875 Descending FlightAware ADS-B
Mon 08:25:30 AM 30.0670 -94.6460 229° Southwest 406 467 8,700 -2,143 Level FlightAware ADS-B
Mon 08:25:43 AM 30.0572 -94.6651 239° Southwest 305 351 8,200 -2,333 Descending FlightAware ADS-B
Mon 08:25:48 AM 30.0540 -94.6700 233° Southwest 300 345 8,000 -1,846 Descending FlightAware ADS-B
Mon 08:25:56 AM 30.0479 -94.6827 241° Southwest 304 350 7,800 -1,667 Descending FlightAware ADS-B
Mon 08:26:06 AM 30.0410 -94.6960 239° Southwest 310 357 7,500 -2,000 Descending FlightAware ADS-B
Mon 08:26:11 AM 30.0369 -94.7037 238° Southwest 301 346 7,300 -2,118 Descending FlightAware ADS-B
Mon 08:26:23 AM 30.0290 -94.7190 239° Southwest 278 320 6,900 -1,875 Descending FlightAware ADS-B
Mon 08:26:27 AM 30.0254 -94.7256 238° Southwest 300 345 6,800 -1,765 Descending FlightAware ADS-B
Mon 08:26:40 AM 30.0170 -94.7430 241° Southwest 265 305 6,400 -2,000 Descending FlightAware ADS-B
Mon 08:26:42 AM 30.0147 -94.7461 229° Southwest 299 344 6,300 -1,579 Descending FlightAware ADS-B
Mon 08:26:59 AM 30.0031 -94.7687 239° Southwest 295 339 5,900 -1,500 Descending FlightAware ADS-B
Mon 08:27:14 AM 29.9926 -94.7890 239° Southwest 288 331 5,500 -1,579 Descending FlightAware ADS-B
Mon 08:27:18 AM 29.9900 -94.7930 233° Southwest 327 376 5,400 -1,636 Descending FlightAware ADS-B
Mon 08:27:25 AM 29.9851 -94.8033 241° Southwest 284 327 5,200 -1,636 Descending FlightAware ADS-B
Mon 08:27:29 AM 29.9831 -94.8080 244° Southwest 283 326 5,100 -1,714 Descending FlightAware ADS-B
Mon 08:27:32 AM 29.9814 -94.8127 247° West 282 325 5,000 -1,000 Descending FlightAware ADS-B
Mon 08:27:35 AM 29.9800 -94.8170 249° West 318 366 5,000 -1,500 Level FlightAware ADS-B
Mon 08:27:36 AM 29.9795 -94.8190 254° West 281 323 4,900 -1,714 Descending FlightAware ADS-B
Mon 08:27:42 AM 29.9779 -94.8274 258° West 280 322 4,800 -1,333 Descending FlightAware ADS-B
Mon 08:27:45 AM 29.9773 -94.8322 262° West 279 321 4,700 -1,714 Descending FlightAware ADS-B
Mon 08:27:49 AM 29.9770 -94.8367 266° West 280 322 4,600 -2,000 Descending FlightAware ADS-B
Mon 08:27:51 AM 29.9770 -94.8410 270° West 284 327 4,500 -2,000 Descending FlightAware ADS-B
Mon 08:27:52 AM 29.9768 -94.8419 256° West 279 321 4,500 -1,500 Level FlightAware ADS-B
Mon 08:28:03 AM 29.9771 -94.8579 271° West 277 319 4,200 -1,200 Descending FlightAware ADS-B
Mon 08:28:07 AM 29.9770 -94.8630 269° West 250 288 4,200 -1,600 Level FlightAware ADS-B
Mon 08:28:18 AM 29.9771 -94.8804 270° West 278 320 3,800 -1,895 Descending FlightAware ADS-B
Mon 08:28:26 AM 29.9770 -94.8900 269° West 234 269 3,600 -1,200 Descending FlightAware ADS-B
Mon 08:28:33 AM 29.9771 -94.9030 271° West 278 320 3,500 -1,000 Descending FlightAware ADS-B
Mon 08:28:44 AM 29.9770 -94.9190 270° West 264 304 3,300 -1,059 Descending FlightAware ADS-B
Mon 08:28:50 AM 29.9770 -94.9270 270° West 272 313 3,200 -1,200 Descending FlightAware ADS-B
Mon 08:28:59 AM 29.9771 -94.9411 270° West 268 308 3,000 -857 Descending FlightAware ADS-B
Mon 08:29:04 AM 29.9770 -94.9470 269° West 345 397 3,000 -923 Level FlightAware ADS-B
Mon 08:29:12 AM 29.9772 -94.9590 271° West 265 305 2,800 -1,200 Descending FlightAware ADS-B
Mon 08:29:19 AM 29.9770 -94.9680 269° West 204 235 2,700 -400 Descending FlightAware ADS-B
Mon 08:29:27 AM 29.9773 -94.9801 272° West 262 302 2,700  Level FlightAware ADS-B
Mon 08:29:39 AM 29.9770 -94.9950 269° West 282 325 2,700  Level FlightAware ADS-B
Mon 08:29:41 AM 29.9775 -94.9988 279° West 255 293 2,700  Level FlightAware ADS-B
Mon 08:29:49 AM 29.9774 -95.0093 269° West 249 287 2,700  Level FlightAware ADS-B
Mon 08:29:58 AM 29.9770 -95.0210 268° West 281 323 2,700  Level FlightAware ADS-B
Mon 08:30:04 AM 29.9774 -95.0285 274° West 232 267 2,700  Level FlightAware ADS-B
Mon 08:30:14 AM 29.9770 -95.0410 268° West 203 234 2,700  Level FlightAware ADS-B
Mon 08:30:19 AM 29.9774 -95.0473 274° West 223 257 2,700  Level FlightAware ADS-B
Mon 08:30:28 AM 29.9775 -95.0572 271° West 221 254 2,700  Level FlightAware ADS-B
Mon 08:30:34 AM 29.9770 -95.0640 265° West 315 362 2,700  Level FlightAware ADS-B
Mon 08:30:40 AM 29.9774 -95.0716 273° West 220 253 2,700  Level FlightAware ADS-B
Mon 08:30:50 AM 29.9770 -95.0820 267° West 233 268 2,700  Level FlightAware ADS-B
Mon 08:30:55 AM 29.9774 -95.0888 274° West 218 251 2,700  Level FlightAware ADS-B
Mon 08:31:08 AM 29.9770 -95.1040 268° West 202 232 2,700  Level FlightAware ADS-B
Mon 08:31:10 AM 29.9774 -95.1064 281° West 212 244 2,700 667 Level FlightAware ADS-B
Mon 08:31:17 AM 29.9775 -95.1143 271° West 204 235 2,800 857 Climbing FlightAware ADS-B

Login

Don't have an account? Register now (free) for customized features, flight alerts, and more!